METAR Data
IDs: Format: Raw Decoded Include TAF

Data at: 0516 UTC 26 Sep 2018

KI69 260455Z AUTO 22007KT 10SM BKN010 OVC016 23/22 A2999 RMK AO2 T02260218
KI69 260435Z AUTO 22007KT 10SM BKN010 OVC015 23/22 A3000 RMK AO2 T02270218
KI69 260415Z AUTO 22007KT 10SM OVC012 23/22 A3000 RMK AO2 T02270218
KI69 260355Z AUTO 22007KT 10SM BKN012 OVC016 23/22 A2999 RMK AO2 T02270218
KI69 260335Z AUTO 21006KT 10SM SCT008 BKN015 OVC085 23/22 A3000 RMK AO2 T02260217
KI69 260315Z AUTO 19004KT 10SM SCT012 BKN080 OVC095 23/22 A2999 RMK AO2 T02250217
KI69 260255Z AUTO 19004KT 10SM BKN012 OVC034 23/22 A3000 RMK AO2 T02250217
KI69 260235Z AUTO 19004KT 10SM BKN015 OVC070 22/22 A3000 RMK AO2 T02220216
KI69 260215Z AUTO 00000KT 10SM SCT013 BKN070 OVC080 22/21 A2999 RMK AO2 T02200214
KI69 260155Z AUTO 00000KT 10SM OVC013 22/21 A2999 RMK AO2 T02210213
KI69 260135Z AUTO 00000KT 10SM OVC015 23/21 A3000 RMK AO2 T02270212
KI69 260115Z AUTO 00000KT 10SM BKN017 OVC025 23/21 A3000 RMK AO2 T02260214
KI69 260055Z AUTO 00000KT 10SM SCT019 BKN028 BKN037 23/22 A2999 RMK AO2 T02260215
KI69 260035Z AUTO 21004KT 10SM SCT019 BKN027 OVC037 23/22 A2999 RMK AO2 T02270215
KI69 260015Z AUTO 21006KT 10SM -RA SCT019 BKN026 OVC033 23/22 A2999 RMK AO2 T02330215
KI69 252355Z AUTO 22004KT 10SM -RA BKN016 OVC021 24/22 A2998 RMK AO2 60001 T02360218 10257 20236
KI69 252335Z AUTO 00000KT 10SM -RA OVC016 24/22 A2998 RMK AO2 T02380220
KI69 252317Z AUTO 19004KT 10SM BKN018 BKN025 OVC075 24/22 A2999 RMK AO2 T02400220
KI69 252257Z AUTO 23007KT 10SM SCT020 SCT038 SCT075 24/22 A3000 RMK AO2 T02410218
KI69 252236Z AUTO 19005KT 10SM CLR 24/22 A2998 RMK AO2 T02420219
KI69 252216Z AUTO 20006KT 10SM CLR 24/22 A2998 RMK AO2 T02420218
KI69 252157Z AUTO 21008G18KT 170V240 10SM CLR 25/22 A2997 RMK AO2 P0001 T02460217
KI69 252136Z AUTO 20006KT 10SM CLR 25/22 A2996 RMK AO2 P0001 T02460222
KI69 252116Z AUTO 19005KT 10SM SCT023 SCT035 SCT043 25/23 A2997 RMK AO2 P0001 T02450226
KI69 252057Z AUTO 18005KT 10SM RA SCT018 SCT025 BKN034 25/22 A2998 RMK AO2 T02540224
KI69 252036Z AUTO 20005KT 10SM BKN022 BKN038 BKN060 26/22 A3000 RMK AO2 T02550222
KI69 252017Z AUTO 19006KT 10SM SCT022 SCT046 BKN060 26/22 A3000 RMK AO2 T02560222
KI69 251957Z AUTO 18005KT 10SM OVC042 25/22 A3001 RMK AO2 T02510220
KI69 251936Z AUTO 18003KT 10SM OVC040 25/22 A3001 RMK AO2 T02460220
KI69 251917Z AUTO 15006KT 10SM SCT035 OVC040 24/22 A3001 RMK AO2 T02420221
KI69 251857Z AUTO 16003KT 10SM SCT025 SCT031 OVC037 24/22 A3003 RMK AO2 T02380219
KI69 251836Z AUTO 19004KT 7SM SCT025 SCT030 OVC037 24/22 A3006 RMK AO2 T02400216
KI69 251817Z AUTO 19006KT 10SM SCT023 SCT031 OVC037 24/22 A3007 RMK AO2 T02420215
KI69 251756Z AUTO 18006KT 10SM SCT023 BKN029 OVC037 24/22 A3008 RMK AO2 60001 T02430217 10244 20203
KI69 251737Z AUTO 20005KT 10SM OVC023 24/22 A3009 RMK AO2 T02420216
KI69 251717Z AUTO 22005KT 10SM OVC023 24/22 A3009 RMK AO2 T02430215
KI69 251657Z AUTO 21008KT 10SM OVC021 24/21 A3009 RMK AO2 T02390212
KI69 251636Z AUTO 20005KT 10SM OVC019 24/21 A3008 RMK AO2 T02370214
KI69 251616Z AUTO 20005KT 10SM BKN017 OVC022 24/21 A3007 RMK AO2 T02360213
KI69 251557Z AUTO 20007KT 10SM SCT013 OVC021 23/21 A3008 RMK AO2 T02310210
KI69 251536Z AUTO 19005KT 10SM BKN012 OVC019 23/21 A3008 RMK AO2 T02250209
KI69 251517Z AUTO 19006KT 10SM SCT013 OVC019 22/21 A3008 RMK AO2 T02210208
KI69 251457Z AUTO 20007KT 10SM SCT010 BKN015 OVC021 22/21 A3009 RMK AO2 T02180206
KI69 251436Z AUTO 20006KT 10SM SCT010 BKN015 OVC030 22/21 A3009 RMK AO2 T02180207
KI69 251417Z AUTO 20005KT 10SM SCT008 BKN015 OVC030 22/21 A3009 RMK AO2 T02160206
KI69 251356Z AUTO 20005KT 10SM SCT008 BKN013 OVC030 21/21 A3008 RMK AO2 T02130205
KI69 251336Z AUTO 21005KT 10SM SCT008 BKN015 OVC030 21/20 A3009 RMK AO2 T02110203
KI69 251317Z AUTO 20007KT 10SM SCT007 OVC013 21/20 A3008 RMK AO2 T02100202
KI69 251256Z AUTO 20004KT 10SM SCT009 BKN016 OVC021 21/20 A3008 RMK AO2 P0001 T02060201
KI69 251236Z AUTO 20006KT 10SM SCT008 OVC021 21/20 A3008 RMK AO2 T02060200
KI69 251217Z AUTO 19006KT 10SM -RA SCT008 SCT012 OVC021 21/20 A3008 RMK AO2 T02050200
KI69 251156Z AUTO 17003KT 10SM SCT008 BKN019 OVC024 20/20 A3008 RMK AO2 60011 70111 T02030200 10205 20201
KI69 251137Z AUTO 19005KT 10SM SCT008 OVC015 20/20 A3007 RMK AO2 T02030198
KI69 251116Z AUTO 19003KT 10SM SCT008 OVC015 20/20 A3007 RMK AO2 T02030198
KI69 251056Z AUTO 19004KT 7SM -RA BKN008 BKN011 OVC017 20/20 A3007 RMK AO2 P0002 T02030198
KI69 251037Z AUTO 19006KT 10SM DZ OVC008 21/20 A3007 RMK AO2 T02050198
KI69 251016Z AUTO 18005KT 10SM OVC008 21/20 A3006 RMK AO2 T02050196
KI69 250956Z AUTO 17006KT 10SM OVC010 20/20 A3006 RMK AO2 T02040197
KI69 250937Z AUTO 18006KT 10SM OVC010 20/20 A3006 RMK AO2 T02040197
KI69 250916Z AUTO 20006KT 10SM BKN010 OVC015 20/20 A3006 RMK AO2 T02040197
KI69 250857Z AUTO 19003KT 10SM SCT010 OVC014 20/20 A3006 RMK AO2 T02030197
KI69 250836Z AUTO 18004KT 10SM SCT008 BKN017 OVC049 20/20 A3006 RMK AO2 T02030197
KI69 250817Z AUTO 00000KT 10SM SCT008 BKN012 OVC049 20/20 A3006 RMK AO2 T02030198
KI69 250756Z AUTO 17004KT 10SM BKN010 BKN013 OVC030 20/20 A3006 RMK AO2 P0009 T02030198
KI69 250737Z AUTO 18006KT 7SM +RA SCT010 BKN013 OVC045 21/20 A3007 RMK AO2 P0005 T02050197
KI69 250717Z AUTO 18006KT 10SM SCT012 SCT038 BKN050 21/20 A3007 RMK AO2 T02050195
KI69 250656Z AUTO 18004KT 10SM SCT012 SCT020 OVC050 21/20 A3007 RMK AO2 T02050196
KI69 250637Z AUTO 19004KT 10SM OVC050 20/20 A3008 RMK AO2 T02040195
KI69 250617Z AUTO 18004KT 10SM BKN046 BKN050 OVC075 20/20 A3007 RMK AO2 T02020195
KI69 250556Z AUTO 18004KT 10SM BKN044 OVC050 20/20 A3008 RMK AO2 60001 T02010195 10202 20197 402080166
KI69 250537Z AUTO 17003KT 10SM SCT030 BKN050 OVC070 20/20 A3008 RMK AO2 T02000195
KI69 250517Z AUTO 18004KT 10SM BKN028 BKN043 OVC070 20/20 A3008 RMK AO2 T02010195
KI69 250456Z AUTO 20006KT 10SM BKN026 BKN031 OVC046 20/20 A3009 RMK AO2 P0001 T02020195
KI69 250437Z AUTO 19003KT 10SM -RA BKN024 OVC037 20/20 A3009 RMK AO2 P0001 T02020195
KI69 250417Z AUTO 17005KT 10SM SCT008 BKN022 OVC038 20/19 A3009 RMK AO2 T02010193
KI69 250356Z AUTO 18005KT 10SM BKN010 BKN013 OVC060 20/19 A3009 RMK AO2 T02010194
KI69 250336Z AUTO 19005KT 10SM BKN008 BKN013 OVC023 20/20 A3009 RMK AO2 T02000195
KI69 250317Z AUTO 18006KT 10SM OVC008 20/19 A3008 RMK AO2 T02000194
KI69 250256Z AUTO 19005KT 10SM OVC008 20/20 A3008 RMK AO2 T02000195
KI69 250236Z AUTO 20003KT 10SM OVC010 20/20 A3008 RMK AO2 T02010195
KI69 250217Z AUTO 18005KT 10SM DZ OVC010 20/19 A3007 RMK AO2 T02010193
KI69 250156Z AUTO 17006KT 10SM OVC010 20/19 A3007 RMK AO2 T02010193
KI69 250136Z AUTO 18006KT 10SM OVC010 20/19 A3007 RMK AO2 T02000192
KI69 250117Z AUTO 17005KT 10SM OVC010 20/19 A3006 RMK AO2 T02000192
KI69 250056Z AUTO 18005KT 10SM BKN010 OVC016 20/19 A3006 RMK AO2 T02000191
KI69 250036Z AUTO 16004KT 10SM BKN010 OVC017 20/19 A3005 RMK AO2 T01980191
KI69 250017Z AUTO 16006KT 10SM OVC010 20/19 A3005 RMK AO2 T01980190
KI69 242356Z AUTO 17006KT 10SM OVC010 20/19 A3006 RMK AO2 60051 T01980190 10208 20196
KI69 242336Z AUTO 16006KT 10SM OVC010 20/19 A3005 RMK AO2 T01970190
KI69 242317Z AUTO 17008KT 10SM RA BKN010 OVC025 20/19 A3006 RMK AO2 T01970190
KI69 242256Z AUTO 16007G15KT 130V190 7SM RA BKN008 BKN013 OVC023 20/19 A3005 RMK AO2 P0015 T01960190
KI69 242236Z AUTO 16008G14KT 140V210 7SM RA BKN008 BKN013 OVC030 20/19 A3006 RMK AO2 P0014 T01970191
KI69 242217Z AUTO 16008G14KT 5SM +RA OVC008 20/19 A3006 RMK AO2 P0009 T01980193
KI69 242156Z AUTO 16006KT 7SM RA OVC008 20/19 A3006 RMK AO2 P0009 T02000193
KI69 242137Z AUTO 18008G15KT 140V220 10SM RA BKN009 BKN026 OVC037 20/20 A3006 RMK AO2 P0002 T02040195
KI69 242117Z AUTO 17006KT 10SM -RA OVC009 21/20 A3006 RMK AO2 P0001 T02050199
KI69 242056Z AUTO 18005KT 7SM RA OVC009 21/20 A3006 RMK AO2 P0013 60027 T02050200
KI69 242037Z AUTO 17005KT 7SM RA OVC009 21/20 A3006 RMK AO2 P0010 T02050200
KI69 242017Z AUTO 15005KT 3SM RA OVC009 21/20 A3006 RMK AO2 P0006 T02060201
KI69 241956Z AUTO 14009G14KT 10SM -RA OVC007 21/20 A3007 RMK AO2 P0008 T02070203
KI69 241937Z AUTO 15006KT 7SM RA OVC007 21/20 A3007 RMK AO2 P0007 T02070204
KI69 241917Z AUTO 12008KT 5SM RA BKN007 BKN020 OVC033 21/20 A3007 RMK AO2 P0004 T02060203
KI69 241856Z AUTO 14007KT 5SM RA BKN005 BKN013 OVC036 21/20 A3009 RMK AO2 P0006 T02060203
KI69 241837Z AUTO 13007KT 7SM RA OVC003 21/20 A3010 RMK AO2 P0003 T02060204
KI69 241816Z AUTO 13004KT 5SM -RA OVC003 21/21 A3010 RMK AO2 P0002 T02060205
KI69 241756Z AUTO 14004KT 4SM RA BKN005 OVC050 21/20 A3012 RMK AO2 P0012 60048 T02050203 10205 20171
KI69 241737Z AUTO 13004KT 4SM RA BKN005 BKN055 OVC090 20/20 A3013 RMK AO2 P0007 T02030201